Time;durP1;ratioP1;P1;durP2;ratioP2;P2;SDS_P1;SDS_P2;PMS_P1;PMS_P2;Temp;Humidity;BMP_temperature;BMP_pressure;BME280_temperature;BME280_humidity;BME280_pressure;Samples;Min_cycle;Max_cycle;Signal;HPM_P1;HPM_P2
2024/01/10 00:03:39;;;;;;;65.07;28.40;;;-13.00;3.50;;;;;;8255010;28;20194;-65
2024/01/10 00:07:40;;;;;;;97.77;37.10;;;-12.90;11.00;;;;;;8253256;28;20227;-65
2024/01/10 00:11:40;;;;;;;96.37;37.03;;;-12.80;10.70;;;;;;8254139;28;20212;-66
2024/01/10 00:15:41;;;;;;;129.70;49.97;;;-12.70;12.00;;;;;;8251469;28;20285;-66
2024/01/10 00:19:42;;;;;;;150.83;53.50;;;-12.60;15.00;;;;;;8262510;28;20194;-65
2024/01/10 00:23:42;;;;;;;117.43;45.63;;;-12.60;15.40;;;;;;8249248;28;20205;-66
2024/01/10 00:27:43;;;;;;;98.30;40.50;;;-12.60;18.90;;;;;;8265139;28;20195;-65
2024/01/10 00:31:44;;;;;;;82.73;36.33;;;-12.60;31.20;;;;;;8245839;28;20215;-65
2024/01/10 00:35:45;;;;;;;88.43;32.80;;;-12.60;23.10;;;;;;8272321;28;20184;-65
2024/01/10 00:39:46;;;;;;;88.53;31.17;;;-12.70;21.90;;;;;;8255569;28;20191;-65
2024/01/10 00:43:46;;;;;;;68.93;29.70;;;-12.80;19.90;;;;;;8253177;28;20198;-65
2024/01/10 00:47:49;;;;;;;68.70;29.80;;;-12.90;22.90;;;;;;8256527;28;20194;-66
2024/01/10 00:51:50;;;;;;;65.20;28.20;;;-12.90;22.70;;;;;;8250946;28;20247;-66
2024/01/10 00:55:53;;;;;;;61.67;27.57;;;-13.00;20.80;;;;;;8251649;28;20180;-66
2024/01/10 00:59:57;;;;;;;62.50;26.20;;;-13.10;19.00;;;;;;8266873;28;20207;-67
2024/01/10 01:04:00;;;;;;;78.13;30.83;;;-13.20;17.40;;;;;;8268639;28;20187;-66
2024/01/10 01:08:01;;;;;;;78.30;31.83;;;-13.20;19.80;;;;;;8253707;28;20203;-66
2024/01/10 01:12:02;;;;;;;76.80;32.33;;;-13.10;24.20;;;;;;8272986;28;20217;-65
2024/01/10 01:16:03;;;;;;;74.27;32.90;;;-13.00;27.50;;;;;;8260219;28;20243;-66
2024/01/10 01:20:05;;;;;;;61.70;27.80;;;-12.90;39.60;;;;;;8249525;28;20465;-66
2024/01/10 01:24:06;;;;;;;54.20;24.43;;;-12.80;49.50;;;;;;8268235;28;20220;-65
2024/01/10 01:28:08;;;;;;;49.87;23.07;;;-12.70;71.30;;;;;;8265774;28;20191;-66
2024/01/10 01:32:09;;;;;;;66.97;25.93;;;-12.70;49.80;;;;;;8253735;28;20246;-65
2024/01/10 01:36:10;;;;;;;57.43;25.00;;;-12.80;42.00;;;;;;8255258;28;20191;-66
2024/01/10 01:40:12;;;;;;;62.03;25.40;;;-13.00;39.90;;;;;;8259272;28;20192;-64
2024/01/10 01:44:13;;;;;;;60.30;25.37;;;-13.00;40.60;;;;;;8270345;28;20195;-65
2024/01/10 01:48:14;;;;;;;55.70;25.17;;;-13.10;39.70;;;;;;8254586;28;20188;-65
2024/01/10 01:52:15;;;;;;;54.57;23.03;;;-13.20;35.90;;;;;;8258604;28;20302;-65
2024/01/10 01:56:24;;;;;;;55.80;23.33;;;-13.30;31.60;;;;;;8258702;28;20212;-63
2024/01/10 02:00:25;;;;;;;85.27;31.63;;;-13.40;32.70;;;;;;8271684;28;20211;-64
2024/01/10 02:04:28;;;;;;;71.10;29.87;;;-13.40;31.50;;;;;;8255037;28;20199;-65
2024/01/10 02:08:33;;;;;;;60.27;27.30;;;-13.50;33.60;;;;;;8269169;28;20195;-66
2024/01/10 02:12:33;;;;;;;89.97;36.10;;;-13.40;31.30;;;;;;8227967;28;20246;-67
2024/01/10 02:16:34;;;;;;;92.63;35.63;;;-13.40;28.40;;;;;;8229691;28;20195;-67
2024/01/10 02:20:35;;;;;;;95.87;38.80;;;-13.50;25.80;;;;;;8233151;28;20188;-66
2024/01/10 02:24:36;;;;;;;104.43;37.33;;;-13.50;23.10;;;;;;8228245;28;20229;-67
2024/01/10 02:28:36;;;;;;;76.57;28.63;;;-13.60;18.00;;;;;;8242468;28;20195;-67
2024/01/10 02:32:40;;;;;;;50.33;23.43;;;-13.70;16.10;;;;;;8244584;28;20223;-67
2024/01/10 02:36:41;;;;;;;56.40;21.57;;;-13.70;13.90;;;;;;8246031;28;20183;-67
2024/01/10 02:40:42;;;;;;;39.83;19.57;;;-13.80;12.40;;;;;;8232549;28;20289;-67
2024/01/10 02:44:43;;;;;;;47.87;21.20;;;-13.80;12.00;;;;;;8245333;28;20199;-67
2024/01/10 02:48:44;;;;;;;50.30;21.00;;;-13.80;12.70;;;;;;8244932;28;20191;-66
2024/01/10 02:52:44;;;;;;;41.43;19.60;;;-13.80;12.60;;;;;;8232179;28;20531;-66
2024/01/10 02:56:45;;;;;;;42.50;18.93;;;-13.80;9.00;;;;;;8242658;28;20188;-66
2024/01/10 03:00:46;;;;;;;54.87;23.77;;;-13.80;9.10;;;;;;8221096;28;20277;-66
2024/01/10 03:04:50;;;;;;;52.83;22.40;;;-13.70;23.60;;;;;;8227692;28;20293;-66
2024/01/10 03:08:51;;;;;;;51.07;22.10;;;-13.60;12.50;;;;;;8230081;28;20207;-66
2024/01/10 03:12:52;;;;;;;50.53;21.23;;;-13.60;15.40;;;;;;8244171;28;20225;-65
2024/01/10 03:16:53;;;;;;;51.20;21.80;;;-13.50;16.70;;;;;;8247973;28;20201;-64
2024/01/10 03:20:54;;;;;;;48.27;20.83;;;-13.40;17.00;;;;;;8245100;28;20305;-66
2024/01/10 03:24:55;;;;;;;135.37;50.53;;;-13.30;20.00;;;;;;8250022;28;20196;-65
2024/01/10 03:28:57;;;;;;;103.97;40.13;;;-13.20;24.20;;;;;;8268325;28;20195;-64
2024/01/10 03:32:58;;;;;;;63.17;25.63;;;-12.90;53.30;;;;;;8246734;28;20211;-66
2024/01/10 03:36:59;;;;;;;53.10;21.47;;;-12.80;65.40;;;;;;8249659;28;20194;-64
2024/01/10 03:40:59;;;;;;;84.30;30.47;;;-12.80;47.30;;;;;;8246228;28;20282;-65
2024/01/10 03:45:00;;;;;;;148.63;46.17;;;-12.80;48.50;;;;;;8248207;28;20275;-65
2024/01/10 03:49:01;;;;;;;127.03;44.47;;;-12.60;60.10;;;;;;8246046;28;20259;-66
2024/01/10 03:53:01;;;;;;;152.57;50.70;;;-12.50;76.40;;;;;;8246918;28;20354;-65
2024/01/10 03:57:03;;;;;;;106.67;38.80;;;-12.50;69.00;;;;;;8235819;28;20212;-65
2024/01/10 04:01:07;;;;;;;75.27;27.73;;;-12.60;50.50;;;;;;8237002;28;20224;-64
2024/01/10 04:05:10;;;;;;;82.10;31.63;;;-12.60;49.40;;;;;;8244073;28;20203;-64
2024/01/10 04:09:11;;;;;;;107.80;40.63;;;-12.50;57.40;;;;;;8240689;28;20285;-65
2024/01/10 04:13:12;;;;;;;98.40;34.77;;;-12.50;62.30;;;;;;8255608;28;20233;-64
2024/01/10 04:17:12;;;;;;;69.77;32.77;;;-12.40;72.20;;;;;;8246470;28;20180;-64
2024/01/10 04:21:13;;;;;;;70.27;29.53;;;-12.40;65.50;;;;;;8244732;28;20243;-64
2024/01/10 04:25:14;;;;;;;87.93;34.40;;;-12.40;67.10;;;;;;8247756;28;20188;-66
2024/01/10 04:29:16;;;;;;;72.97;29.33;;;-12.40;64.90;;;;;;8244641;28;20184;-65
2024/01/10 04:33:17;;;;;;;73.37;28.90;;;-12.50;56.70;;;;;;8246156;28;20180;-69
2024/01/10 04:37:18;;;;;;;63.37;27.20;;;-12.60;50.00;;;;;;8256816;28;20184;-65
2024/01/10 04:41:19;;;;;;;65.83;27.03;;;-12.60;56.50;;;;;;8243174;28;20184;-66
2024/01/10 04:45:20;;;;;;;74.33;32.73;;;-12.60;58.90;;;;;;8243806;28;20194;-65
2024/01/10 04:49:20;;;;;;;75.83;30.13;;;-12.50;74.00;;;;;;8261458;28;20196;-65
2024/01/10 04:53:22;;;;;;;76.73;29.27;;;-12.50;82.30;;;;;;8250214;28;20201;-64
2024/01/10 04:57:24;;;;;;;65.50;28.57;;;-12.50;77.60;;;;;;8249728;28;20246;-65
2024/01/10 05:01:25;;;;;;;73.37;27.90;;;-12.50;67.60;;;;;;8270380;28;20209;-66
2024/01/10 05:05:26;;;;;;;93.07;38.67;;;-12.60;59.80;;;;;;8255834;28;20191;-65
2024/01/10 05:09:27;;;;;;;83.73;32.00;;;-12.60;74.20;;;;;;8255786;28;20282;-64
2024/01/10 05:13:28;;;;;;;76.83;32.40;;;-12.50;85.40;;;;;;8269993;28;20290;-64
2024/01/10 05:17:30;;;;;;;63.50;27.70;;;-12.40;85.80;;;;;;8274381;28;20247;-64
2024/01/10 05:21:32;;;;;;;72.80;27.90;;;-12.50;76.50;;;;;;8252927;28;20192;-64
2024/01/10 05:25:33;;;;;;;80.07;29.60;;;-12.50;69.40;;;;;;8254739;28;20192;-66
2024/01/10 05:29:34;;;;;;;74.77;30.07;;;-12.60;76.90;;;;;;8253966;28;20275;-64
2024/01/10 05:33:35;;;;;;;72.97;31.83;;;-12.60;70.70;;;;;;8254824;28;20598;-65
2024/01/10 05:37:36;;;;;;;74.63;32.00;;;-12.60;73.30;;;;;;8251951;28;20273;-66
2024/01/10 05:41:37;;;;;;;83.83;33.10;;;-12.60;70.00;;;;;;8241286;28;20211;-66
2024/01/10 05:45:37;;;;;;;77.77;30.43;;;-12.60;63.40;;;;;;8230866;28;20191;-66
2024/01/10 05:49:38;;;;;;;182.60;61.93;;;-12.70;59.80;;;;;;8236128;28;20215;-66
2024/01/10 05:53:39;;;;;;;102.67;40.00;;;-12.60;66.40;;;;;;8244505;28;20195;-66
2024/01/10 05:57:40;;;;;;;117.17;49.80;;;-12.60;70.20;;;;;;8235466;28;20198;-66
2024/01/10 06:01:40;;;;;;;134.90;58.00;;;-12.50;85.80;;;;;;8236756;28;20204;-66
2024/01/10 06:05:41;;;;;;;130.20;55.30;;;-12.50;76.00;;;;;;8232991;28;20290;-66
2024/01/10 06:09:43;;;;;;;146.87;61.60;;;-12.50;68.20;;;;;;8231841;28;20223;-66
2024/01/10 06:13:44;;;;;;;165.93;55.63;;;-12.60;63.70;;;;;;8228176;28;20571;-66
2024/01/10 06:17:45;;;;;;;127.63;45.20;;;-12.60;67.40;;;;;;8232244;28;20258;-66
2024/01/10 06:21:45;;;;;;;146.03;45.30;;;-12.60;75.70;;;;;;8232368;28;20191;-66
2024/01/10 06:25:46;;;;;;;130.40;41.87;;;-12.60;71.10;;;;;;8230773;28;20242;-66
2024/01/10 06:29:47;;;;;;;104.77;39.93;;;-12.70;63.10;;;;;;8230035;28;20207;-66
2024/01/10 06:33:48;;;;;;;118.80;37.40;;;-12.80;58.20;;;;;;8245740;28;20199;-65
2024/01/10 06:37:48;;;;;;;101.87;38.67;;;-12.90;57.50;;;;;;8229423;28;20210;-66
2024/01/10 06:41:49;;;;;;;85.87;35.77;;;-12.90;56.30;;;;;;8228961;28;20191;-66
2024/01/10 06:45:50;;;;;;;67.37;28.83;;;-12.90;57.30;;;;;;8229143;28;20189;-66
2024/01/10 06:49:50;;;;;;;65.13;27.53;;;-13.00;49.20;;;;;;8244930;28;20211;-65
2024/01/10 06:53:51;;;;;;;65.10;26.20;;;-13.10;41.20;;;;;;8233860;28;20191;-66
2024/01/10 06:57:54;;;;;;;58.43;23.87;;;-13.20;40.40;;;;;;8230581;28;20238;-65
2024/01/10 07:02:01;;;;;;;57.70;25.30;;;-13.20;39.10;;;;;;8231385;28;20192;-66
2024/01/10 07:06:01;;;;;;;52.00;22.70;;;-13.30;36.30;;;;;;8249221;28;20223;-66
2024/01/10 07:10:05;;;;;;;53.97;22.70;;;-13.30;33.80;;;;;;8236209;28;20263;-65
2024/01/10 07:14:06;;;;;;;78.57;30.57;;;-13.30;33.50;;;;;;8244892;28;20195;-64
2024/01/10 07:18:07;;;;;;;102.80;39.53;;;-13.30;33.50;;;;;;8241804;28;20215;-65
2024/01/10 07:22:10;;;;;;;91.83;35.77;;;-13.20;37.20;;;;;;8256424;28;20184;-65
2024/01/10 07:26:15;;;;;;;91.53;35.37;;;-13.10;36.70;;;;;;8265319;28;20258;-64
2024/01/10 07:30:15;;;;;;;68.03;28.00;;;-13.10;33.70;;;;;;8253294;28;20203;-64
2024/01/10 07:34:16;;;;;;;71.90;28.77;;;-13.00;32.30;;;;;;8261022;28;20302;-64
2024/01/10 07:38:17;;;;;;;55.10;25.20;;;-13.00;48.40;;;;;;8252916;28;20234;-65
2024/01/10 07:42:18;;;;;;;103.63;37.93;;;-12.90;32.00;;;;;;8259837;28;20239;-65
2024/01/10 07:46:19;;;;;;;106.10;39.27;;;-12.80;48.20;;;;;;8241179;28;20329;-64
2024/01/10 07:50:19;;;;;;;90.00;37.50;;;-12.70;32.30;;;;;;8253567;28;20266;-65
2024/01/10 07:54:21;;;;;;;86.90;35.07;;;-12.60;34.10;;;;;;8267594;28;20510;-64
2024/01/10 07:58:21;;;;;;;87.23;32.80;;;-12.40;37.80;;;;;;8254480;28;20295;-64
2024/01/10 08:02:23;;;;;;;73.60;32.40;;;-12.20;40.40;;;;;;8255329;28;20184;-64
2024/01/10 08:06:24;;;;;;;85.20;37.30;;;-12.00;44.00;;;;;;8255371;28;20199;-64
2024/01/10 08:10:27;;;;;;;85.03;35.23;;;-11.80;44.10;;;;;;8243680;28;20236;-65
2024/01/10 08:14:27;;;;;;;91.70;38.63;;;-11.50;47.50;;;;;;8239352;28;20563;-65
2024/01/10 08:18:28;;;;;;;100.23;42.67;;;-11.20;50.70;;;;;;8255596;28;20199;-65
2024/01/10 08:22:29;;;;;;;115.83;44.50;;;-11.00;49.70;;;;;;8247651;28;20200;-64
2024/01/10 08:26:31;;;;;;;100.30;43.27;;;-10.70;52.30;;;;;;8269457;28;20193;-64
2024/01/10 08:30:32;;;;;;;148.60;57.83;;;-10.40;47.60;;;;;;8244785;28;20223;-64
2024/01/10 08:34:33;;;;;;;105.77;46.73;;;-10.20;39.40;;;;;;8241311;28;20195;-64
2024/01/10 08:38:35;;;;;;;163.07;59.20;;;-10.00;38.80;;;;;;8246784;28;20180;-65
2024/01/10 08:42:35;;;;;;;143.40;58.73;;;-9.80;34.30;;;;;;8240229;28;20191;-65
2024/01/10 08:46:37;;;;;;;116.43;49.10;;;-9.60;29.50;;;;;;8245612;28;20194;-64
2024/01/10 08:50:38;;;;;;;148.37;59.80;;;-9.40;20.80;;;;;;8242937;28;20215;-64
2024/01/10 08:54:39;;;;;;;109.87;48.03;;;-9.30;12.10;;;;;;8241569;28;20184;-64
2024/01/10 08:58:39;;;;;;;114.30;47.43;;;-9.10;4.20;;;;;;8237541;28;20213;-63
2024/01/10 09:02:40;;;;;;;108.47;45.17;;;-9.00;1.00;;;;;;8241311;28;20282;-65
2024/01/10 09:06:41;;;;;;;121.43;50.27;;;-8.90;1.00;;;;;;8240945;28;20464;-65
2024/01/10 09:10:42;;;;;;;141.13;54.57;;;-8.80;1.00;;;;;;8245107;28;20252;-64
2024/01/10 09:14:42;;;;;;;183.97;72.43;;;-8.80;1.00;;;;;;8242752;28;20192;-65
2024/01/10 09:18:43;;;;;;;159.93;61.90;;;-8.70;1.00;;;;;;8244024;28;20190;-65
2024/01/10 09:22:44;;;;;;;127.20;49.27;;;-8.50;1.00;;;;;;8260344;28;20305;-67
2024/01/10 09:26:44;;;;;;;104.47;44.43;;;-8.40;1.00;;;;;;8236225;28;20199;-66
2024/01/10 09:30:45;;;;;;;93.33;42.10;;;-8.30;1.00;;;;;;8249502;28;21101;-65
2024/01/10 09:34:46;;;;;;;97.40;39.87;;;-8.10;1.00;;;;;;8263631;28;20194;-64
2024/01/10 09:38:47;;;;;;;90.43;39.50;;;-7.90;1.00;;;;;;8267418;28;20189;-64
2024/01/10 09:42:51;;;;;;;89.60;39.43;;;-7.70;1.00;;;;;;8240427;28;20685;-67
2024/01/10 09:46:53;;;;;;;90.20;38.37;;;-7.50;1.00;;;;;;8240513;28;20192;-64
2024/01/10 09:50:56;;;;;;;103.93;42.03;;;-7.40;1.00;;;;;;8242135;28;20540;-66
2024/01/10 09:54:58;;;;;;;101.77;43.40;;;-7.20;1.00;;;;;;8262784;28;20280;-67
2024/01/10 09:59:01;;;;;;;95.53;40.97;;;-7.10;1.00;;;;;;8257966;28;20204;-66
2024/01/10 10:03:04;;;;;;;98.13;41.93;;;-7.00;1.00;;;;;;8261116;28;20192;-66
2024/01/10 10:07:05;;;;;;;89.70;41.40;;;-6.90;1.00;;;;;;8262629;28;20229;-66
2024/01/10 10:11:06;;;;;;;89.57;40.77;;;-6.80;1.00;;;;;;8267897;28;20312;-66
2024/01/10 10:15:12;;;;;;;95.93;39.57;;;-6.70;1.00;;;;;;8262613;28;20321;-67
2024/01/10 10:19:22;;;;;;;86.20;38.90;;;-6.50;1.00;;;;;;8243998;28;20185;-67
2024/01/10 10:23:22;;;;;;;103.10;44.03;;;-6.40;1.00;;;;;;8245102;28;20216;-66
2024/01/10 10:27:23;;;;;;;100.13;46.53;;;-6.20;1.00;;;;;;8259778;28;20336;-66
2024/01/10 10:31:24;;;;;;;99.97;41.93;;;-6.00;1.00;;;;;;8243263;28;20224;-66
2024/01/10 10:35:25;;;;;;;90.70;40.93;;;-5.90;1.00;;;;;;8254830;28;20196;-68
2024/01/10 10:39:26;;;;;;;99.43;40.97;;;-5.70;1.00;;;;;;8250611;28;20186;-67
2024/01/10 10:43:32;;;;;;;91.47;43.27;;;-5.60;1.00;;;;;;8252207;28;20187;-68
2024/01/10 10:47:38;;;;;;;108.50;44.73;;;-5.50;1.00;;;;;;8232560;28;20188;-65
2024/01/10 10:51:41;;;;;;;99.40;44.63;;;-5.40;1.00;;;;;;8232354;28;20209;-67
2024/01/10 10:55:42;;;;;;;129.50;53.80;;;-5.30;1.00;;;;;;8231993;28;20229;-67
2024/01/10 10:59:44;;;;;;;106.13;47.83;;;-5.20;1.00;;;;;;8231113;28;20203;-67
2024/01/10 11:03:47;;;;;;;94.10;42.57;;;-5.10;1.00;;;;;;8233962;28;20584;-67
2024/01/10 11:07:48;;;;;;;85.20;40.87;;;-5.00;1.00;;;;;;8250484;28;20188;-66
2024/01/10 11:12:11;;;;;;;96.73;42.80;;;-5.00;1.00;;;;;;8231252;28;20254;-68
2024/01/10 11:16:41;;;;;;;93.43;42.13;;;-4.80;1.00;;;;;;8233995;28;20190;-66
2024/01/10 11:20:47;;;;;;;85.97;40.77;;;-4.70;1.00;;;;;;8237762;28;20297;-67
2024/01/10 11:24:48;;;;;;;92.23;40.30;;;-4.60;1.00;;;;;;8232378;28;20258;-68
2024/01/10 11:28:50;;;;;;;81.67;38.00;;;-4.60;1.00;;;;;;8235088;28;20192;-68
2024/01/10 11:32:51;;;;;;;93.30;39.90;;;-4.60;1.00;;;;;;8228948;28;20213;-69
2024/01/10 11:37:10;;;;;;;81.33;38.20;;;-4.60;1.00;;;;;;8236929;28;20624;-67
2024/01/10 11:41:12;;;;;;;82.97;38.80;;;-4.50;1.00;;;;;;8244641;28;20199;-68
2024/01/10 11:45:36;;;;;;;91.63;39.87;;;-4.40;1.00;;;;;;8227971;28;20190;-67
2024/01/10 11:49:37;;;;;;;78.70;37.90;;;-4.30;1.00;;;;;;8232860;28;20195;-66
2024/01/10 11:53:42;;;;;;;113.90;42.20;;;-4.20;1.00;;;;;;8234590;28;20516;-66
2024/01/10 11:58:08;;;;;;;108.70;42.27;;;-4.20;1.00;;;;;;8230034;28;20245;-68
2024/01/10 12:02:08;;;;;;;163.90;58.03;;;-4.10;1.00;;;;;;8219129;28;20195;-66
2024/01/10 12:06:09;;;;;;;140.13;54.97;;;-3.90;1.00;;;;;;8224552;28;20199;-66
2024/01/10 12:10:10;;;;;;;155.03;60.83;;;-3.80;1.00;;;;;;8219193;28;20701;-67
2024/01/10 12:14:11;;;;;;;99.80;40.27;;;-3.70;1.00;;;;;;8222837;28;20203;-67
2024/01/10 12:18:12;;;;;;;100.33;38.27;;;-3.60;1.00;;;;;;8234458;28;20262;-68
2024/01/10 12:22:13;;;;;;;118.30;47.63;;;-3.60;1.00;;;;;;8221827;28;20238;-67
2024/01/10 12:26:14;;;;;;;91.63;41.70;;;-3.50;1.00;;;;;;8213088;28;20180;-68
2024/01/10 12:30:17;;;;;;;142.37;52.03;;;-3.40;1.00;;;;;;8220480;28;20207;-68
2024/01/10 12:34:19;;;;;;;111.83;54.63;;;-3.30;1.00;;;;;;8241022;28;20187;-66
2024/01/10 12:38:20;;;;;;;77.57;37.23;;;-3.40;1.00;;;;;;8223884;28;20215;-67
2024/01/10 12:42:21;;;;;;;73.90;35.13;;;-3.40;1.00;;;;;;8228756;28;20258;-68
2024/01/10 12:46:25;;;;;;;66.63;32.77;;;-3.30;1.00;;;;;;8240586;28;20299;-66
2024/01/10 12:50:26;;;;;;;75.40;34.77;;;-3.30;1.00;;;;;;8220295;28;20211;-66
2024/01/10 12:54:26;;;;;;;67.73;33.07;;;-3.30;1.00;;;;;;8238168;28;20184;-67
2024/01/10 12:58:28;;;;;;;60.73;31.17;;;-3.30;1.00;;;;;;8223400;28;20241;-69
2024/01/10 13:02:29;;;;;;;62.73;30.83;;;-3.20;1.00;;;;;;8222171;28;20290;-67
2024/01/10 13:06:31;;;;;;;59.30;31.57;;;-3.20;1.00;;;;;;8224326;28;20188;-66
2024/01/10 13:10:31;;;;;;;80.23;38.13;;;-3.10;1.00;;;;;;8224610;28;20207;-65
2024/01/10 13:14:32;;;;;;;72.40;34.63;;;-3.10;1.00;;;;;;8241208;28;20192;-68
2024/01/10 13:18:33;;;;;;;64.30;31.97;;;-3.10;1.00;;;;;;8245163;28;20458;-67
2024/01/10 13:22:34;;;;;;;61.70;28.87;;;-3.10;1.00;;;;;;8232775;28;20237;-69
2024/01/10 13:26:35;;;;;;;61.57;29.57;;;-3.10;1.00;;;;;;8249716;28;20195;-69
2024/01/10 13:30:36;;;;;;;66.93;31.47;;;-3.10;1.00;;;;;;8229630;28;20367;-68
2024/01/10 13:34:37;;;;;;;69.77;30.43;;;-3.10;1.00;;;;;;8228927;28;20263;-68
2024/01/10 13:38:37;;;;;;;66.23;30.73;;;-3.10;1.00;;;;;;8239871;28;20187;-68
2024/01/10 13:42:39;;;;;;;67.70;34.77;;;-3.10;1.00;;;;;;8231024;28;20190;-68
2024/01/10 13:46:40;;;;;;;61.53;30.80;;;-3.10;1.00;;;;;;8232184;28;20389;-67
2024/01/10 13:50:40;;;;;;;70.73;34.13;;;-3.20;1.00;;;;;;8233945;28;20238;-68
2024/01/10 13:54:42;;;;;;;68.73;33.50;;;-3.20;1.00;;;;;;8235312;28;20264;-68
2024/01/10 13:58:43;;;;;;;65.40;33.97;;;-3.20;1.00;;;;;;8238448;28;20214;-68
2024/01/10 14:02:43;;;;;;;62.23;32.10;;;-3.30;1.00;;;;;;8235281;28;20194;-68
2024/01/10 14:06:44;;;;;;;62.57;32.27;;;-3.30;1.00;;;;;;8229966;28;20709;-68
2024/01/10 14:10:45;;;;;;;73.07;32.50;;;-3.30;1.00;;;;;;8245637;28;20226;-68
2024/01/10 14:14:45;;;;;;;73.23;33.10;;;-3.40;1.00;;;;;;8234701;28;20194;-67
2024/01/10 14:18:48;;;;;;;71.17;34.23;;;-3.50;1.00;;;;;;8242663;28;20346;-68
2024/01/10 14:22:50;;;;;;;65.97;32.70;;;-3.60;1.00;;;;;;8231022;28;20346;-67
2024/01/10 14:26:51;;;;;;;64.17;32.43;;;-3.60;1.00;;;;;;8227016;28;20262;-67
2024/01/10 14:30:51;;;;;;;63.33;31.33;;;-3.70;1.00;;;;;;8237349;28;20214;-67
2024/01/10 14:34:52;;;;;;;63.17;30.77;;;-3.80;1.00;;;;;;8236674;28;20207;-67
2024/01/10 14:38:55;;;;;;;66.00;31.10;;;-3.90;1.00;;;;;;8237661;28;20339;-65
2024/01/10 14:42:55;;;;;;;65.30;32.30;;;-4.00;1.00;;;;;;8241662;28;20188;-67
2024/01/10 14:46:56;;;;;;;62.63;28.80;;;-4.20;1.00;;;;;;8225410;28;20191;-67
2024/01/10 14:50:57;;;;;;;64.47;29.33;;;-4.40;1.00;;;;;;8243702;28;20211;-64
2024/01/10 14:54:58;;;;;;;60.80;29.03;;;-4.60;1.00;;;;;;8242375;28;20183;-65
2024/01/10 14:58:59;;;;;;;60.23;28.73;;;-4.80;1.00;;;;;;8248414;28;20273;-66
2024/01/10 15:03:00;;;;;;;58.90;29.17;;;-5.10;1.00;;;;;;8245718;28;20183;-65
2024/01/10 15:07:08;;;;;;;62.43;28.77;;;-5.30;1.00;;;;;;8251529;28;20184;-67
2024/01/10 15:11:12;;;;;;;61.07;29.57;;;-5.50;1.00;;;;;;8251724;28;20207;-66
2024/01/10 15:15:13;;;;;;;58.23;28.43;;;-5.70;1.00;;;;;;8255943;28;20187;-67
2024/01/10 15:19:18;;;;;;;56.83;29.03;;;-6.00;1.00;;;;;;8269162;28;20247;-66
2024/01/10 15:23:19;;;;;;;56.80;27.13;;;-6.20;1.00;;;;;;8255360;28;20284;-65
2024/01/10 15:27:20;;;;;;;56.77;28.90;;;-6.40;1.00;;;;;;8260401;28;20270;-65
2024/01/10 15:31:21;;;;;;;62.23;29.77;;;-6.50;1.00;;;;;;8259122;28;20221;-64
2024/01/10 15:35:25;;;;;;;63.97;31.43;;;-6.70;1.00;;;;;;8255813;28;20182;-66
2024/01/10 15:39:26;;;;;;;65.03;29.97;;;-6.80;1.00;;;;;;8266024;28;20217;-65
2024/01/10 15:43:27;;;;;;;63.10;31.27;;;-7.00;1.00;;;;;;8253754;28;20216;-64
2024/01/10 15:47:28;;;;;;;63.80;29.87;;;-7.10;1.00;;;;;;8254041;28;20198;-66
2024/01/10 15:51:29;;;;;;;64.70;30.33;;;-7.20;1.00;;;;;;8235858;28;20212;-64
2024/01/10 15:55:29;;;;;;;63.37;28.63;;;-7.40;1.00;;;;;;8244150;28;20189;-64
2024/01/10 15:59:30;;;;;;;64.10;29.40;;;-7.60;1.00;;;;;;8244803;28;20207;-65
2024/01/10 16:03:32;;;;;;;72.97;31.57;;;-7.70;1.00;;;;;;8246182;28;20222;-64
2024/01/10 16:07:33;;;;;;;66.33;29.63;;;-7.80;1.00;;;;;;8249300;28;20198;-64
2024/01/10 16:11:42;;;;;;;68.70;31.60;;;-7.90;1.00;;;;;;8245758;28;20223;-64
2024/01/10 16:15:43;;;;;;;62.77;29.10;;;-8.00;1.00;;;;;;8250020;28;20180;-65
2024/01/10 16:19:44;;;;;;;68.60;31.43;;;-8.10;1.00;;;;;;8253276;28;20187;-65
2024/01/10 16:23:45;;;;;;;71.53;31.57;;;-8.20;1.00;;;;;;8236166;28;20205;-64
2024/01/10 16:27:45;;;;;;;67.50;29.83;;;-8.30;1.00;;;;;;8251830;28;20194;-65
2024/01/10 16:31:51;;;;;;;65.53;30.60;;;-8.40;1.00;;;;;;8268366;28;20220;-66
2024/01/10 16:35:52;;;;;;;65.80;30.37;;;-8.40;1.00;;;;;;8243644;28;20199;-65
2024/01/10 16:39:53;;;;;;;61.23;29.60;;;-8.50;1.00;;;;;;8252615;28;20195;-65
2024/01/10 16:43:55;;;;;;;78.73;34.03;;;-8.60;1.00;;;;;;8244643;28;20215;-65
2024/01/10 16:47:56;;;;;;;127.87;49.53;;;-8.70;1.00;;;;;;8254343;28;20203;-64
2024/01/10 16:51:57;;;;;;;140.73;52.13;;;-8.70;1.00;;;;;;8253733;28;20215;-65
2024/01/10 16:55:58;;;;;;;109.27;43.50;;;-8.70;1.00;;;;;;8251041;28;20184;-65
2024/01/10 17:00:02;;;;;;;83.17;34.10;;;-8.80;1.00;;;;;;8252322;28;20211;-64
2024/01/10 17:04:03;;;;;;;74.60;33.50;;;-8.90;1.00;;;;;;8263409;28;20203;-65
2024/01/10 17:08:04;;;;;;;86.37;35.60;;;-9.00;1.00;;;;;;8244041;28;20192;-65
2024/01/10 17:12:06;;;;;;;72.37;33.80;;;-9.00;1.00;;;;;;8246259;28;20265;-66
2024/01/10 17:16:07;;;;;;;80.20;34.40;;;-9.10;1.00;;;;;;8235613;28;20274;-66
2024/01/10 17:20:08;;;;;;;78.10;33.53;;;-9.20;1.00;;;;;;8235109;28;20194;-67
2024/01/10 17:24:09;;;;;;;77.87;33.70;;;-9.30;1.00;;;;;;8245918;28;20574;-67
2024/01/10 17:28:12;;;;;;;65.57;31.43;;;-9.30;1.00;;;;;;8235124;28;20246;-67
2024/01/10 17:32:13;;;;;;;78.90;33.70;;;-9.40;1.00;;;;;;8236599;28;20212;-66
2024/01/10 17:36:14;;;;;;;87.87;35.07;;;-9.50;1.00;;;;;;8237701;28;20214;-66
2024/01/10 17:40:15;;;;;;;90.60;38.00;;;-9.50;1.00;;;;;;8233475;28;20196;-66
2024/01/10 17:44:16;;;;;;;97.20;40.20;;;-9.50;1.00;;;;;;8235385;28;20195;-66
2024/01/10 17:48:17;;;;;;;105.33;42.17;;;-9.50;1.00;;;;;;8237558;28;20195;-66
2024/01/10 17:52:18;;;;;;;103.27;40.20;;;-9.60;1.00;;;;;;8237219;28;20658;-66
2024/01/10 17:56:20;;;;;;;96.83;37.97;;;-9.60;1.00;;;;;;8234188;28;20196;-66
2024/01/10 18:00:23;;;;;;;91.30;39.47;;;-9.70;1.00;;;;;;8237600;28;20237;-66
2024/01/10 18:04:24;;;;;;;89.00;35.50;;;-9.80;1.00;;;;;;8239143;28;20227;-66
2024/01/10 18:08:24;;;;;;;85.43;36.80;;;-9.90;1.00;;;;;;8239928;28;20479;-66
2024/01/10 18:12:26;;;;;;;91.27;39.17;;;-9.90;1.00;;;;;;8235847;28;20215;-66
2024/01/10 18:16:28;;;;;;;82.93;36.50;;;-10.00;1.00;;;;;;8239692;28;20198;-66
2024/01/10 18:20:29;;;;;;;86.30;37.37;;;-10.00;1.00;;;;;;8230328;28;20196;-66
2024/01/10 18:24:30;;;;;;;92.03;38.80;;;-10.10;1.00;;;;;;8239568;28;20188;-66
2024/01/10 18:28:31;;;;;;;87.67;38.03;;;-10.10;7.10;;;;;;8258253;28;20188;-66
2024/01/10 18:32:32;;;;;;;98.73;37.93;;;-10.20;8.50;;;;;;8262266;28;20486;-63
2024/01/10 18:36:35;;;;;;;86.23;37.03;;;-10.20;9.70;;;;;;8249615;28;20179;-65
2024/01/10 18:40:36;;;;;;;77.07;35.00;;;-10.20;9.60;;;;;;8244775;28;20270;-65
2024/01/10 18:44:37;;;;;;;76.37;36.00;;;-10.30;10.50;;;;;;8240119;28;20179;-66
2024/01/10 18:48:38;;;;;;;100.17;38.70;;;-10.40;10.10;;;;;;8234162;28;20193;-66
2024/01/10 18:52:39;;;;;;;84.37;36.37;;;-10.40;11.20;;;;;;8269697;28;20330;-64
2024/01/10 18:56:40;;;;;;;94.40;39.90;;;-10.50;13.30;;;;;;8270211;28;20187;-65
2024/01/10 19:00:43;;;;;;;82.33;34.93;;;-10.50;13.50;;;;;;8269385;28;20217;-65
2024/01/10 19:04:44;;;;;;;95.83;40.37;;;-10.50;13.90;;;;;;8271452;28;20195;-64
2024/01/10 19:08:45;;;;;;;84.57;36.23;;;-10.50;18.30;;;;;;8249982;28;20212;-65
2024/01/10 19:12:46;;;;;;;78.27;37.87;;;-10.50;20.00;;;;;;8253823;28;20254;-65
2024/01/10 19:16:49;;;;;;;90.17;37.83;;;-10.60;17.00;;;;;;8254756;28;20246;-65
2024/01/10 19:20:53;;;;;;;84.47;35.50;;;-10.70;15.60;;;;;;8268104;28;20211;-66
2024/01/10 19:24:54;;;;;;;84.77;35.20;;;-10.70;15.40;;;;;;8254936;28;20195;-64
2024/01/10 19:28:55;;;;;;;85.73;36.00;;;-10.80;15.90;;;;;;8254124;28;20271;-64
2024/01/10 19:32:56;;;;;;;74.77;33.53;;;-10.80;16.80;;;;;;8251586;28;20275;-64
2024/01/10 19:36:57;;;;;;;80.27;34.27;;;-10.90;16.10;;;;;;8250289;28;20186;-64
2024/01/10 19:40:57;;;;;;;87.30;35.60;;;-11.00;16.60;;;;;;8253556;28;20361;-66
2024/01/10 19:44:58;;;;;;;80.27;34.43;;;-11.00;18.40;;;;;;8251532;28;20196;-64
2024/01/10 19:48:59;;;;;;;79.37;35.67;;;-11.00;16.90;;;;;;8250496;28;20199;-66
2024/01/10 19:53:00;;;;;;;86.03;36.63;;;-11.10;17.80;;;;;;8251519;28;20220;-64
2024/01/10 19:57:01;;;;;;;88.00;34.07;;;-11.10;19.20;;;;;;8249343;28;20185;-64
2024/01/10 20:01:02;;;;;;;79.70;36.53;;;-11.10;18.80;;;;;;8240984;28;20212;-64
2024/01/10 20:05:03;;;;;;;94.93;39.43;;;-11.20;17.80;;;;;;8265440;28;20190;-64
2024/01/10 20:09:04;;;;;;;80.40;37.10;;;-11.20;32.00;;;;;;8265064;28;20206;-64
2024/01/10 20:13:08;;;;;;;86.10;39.07;;;-11.20;19.10;;;;;;8248323;28;20326;-64
2024/01/10 20:17:09;;;;;;;107.33;43.53;;;-11.20;22.10;;;;;;8250157;28;20197;-64
2024/01/10 20:21:14;;;;;;;101.70;40.33;;;-11.20;27.00;;;;;;8246872;28;20213;-64